• vieta
  • image
  • image
  • image
mod_vvisit_countermod_vvisit_countermod_vvisit_countermod_vvisit_countermod_vvisit_countermod_vvisit_countermod_vvisit_counter
mod_vvisit_counterŠiandien202
mod_vvisit_counterVakar311
mod_vvisit_counterŠią savaitę1409
mod_vvisit_counterPraėjusią savaitę4842
mod_vvisit_counterŠį mėnesį12977
mod_vvisit_counterPraėjusį mėnesį22275
mod_vvisit_counterViso1021209

Mes turime: 17 svečius online
Jūsų IP: 54.145.17.37
 , 
Šiandien: Lap 21, 2018
Oro uostas / Informacija keleiviams / Taisyklės / Pasienio kontrolė

Pasienio kontrolė

Šiame skyriuje Jums pateikiame naudingą nuorodą į Valstybės sienos apsaugos tarnybos (VSAT) internetinę svetainę, kurioje rasite aktualios informacijos, tokios kaip: bendroji informacija, ką reikia žinoti keliaujant su vaiku, asmens tapatybės kortelės, vizos ir kitą.

Minėta informaciją rasite čia: Valstybės sienos apsaugos tarnyba

Šiandien

Trečiadienis, 21 Lapkritis 2018

Orų prognozė aviacijai

[source: ADDS]
METAR
EYSA 210420Z 03006KT 9999 OVC007 M03/M04 Q1030 R14L/09//95 GRN NOSIG =
TAF EYSA 210205Z 2103/2112 VRB05KT 5000 BR OVC005 TEMPO 2103/2106 3000 BECMG 2106/2107 9000 BKN040
TAF
TAF EYSA 210205Z 2103/2112 VRB05KT 5000 BR OVC005 TEMPO 2103/2106 3000 BECMG 2106/2107 9000 BKN040 =
SR / SS: 06:12 / 14:15 UTC (EYSA 2018-11-21)

Paieška

Lankytojai

Mes turime 17 svečius online

tic logo lt